Time;durP1;ratioP1;P1;durP2;ratioP2;P2;SDS_P1;SDS_P2;PMS_P1;PMS_P2;Temp;Humidity;BMP_temperature;BMP_pressure;BME280_temperature;BME280_humidity;BME280_pressure;Samples;Min_cycle;Max_cycle;Signal;HPM_P1;HPM_P2
2023/05/05 00:01:23;;;;;;;5.00;2.80;;;;;;;11.07;67.18;100263.27;105676;1255;61982;-68
2023/05/05 00:03:50;;;;;;;3.40;2.30;;;;;;;11.05;67.66;100263.46;105357;1257;75827;-67
2023/05/05 00:06:17;;;;;;;3.50;2.80;;;;;;;11.04;67.56;100268.08;106029;1260;73675;-68
2023/05/05 00:08:45;;;;;;;4.10;2.90;;;;;;;11.02;67.89;100269.14;105926;1258;73572;-69
2023/05/05 00:11:12;;;;;;;5.00;3.30;;;;;;;10.99;68.40;100271.17;105254;1258;62754;-69
2023/05/05 00:13:38;;;;;;;4.40;2.80;;;;;;;11.00;68.11;100269.14;105960;1254;61189;-72
2023/05/05 00:16:06;;;;;;;5.10;2.60;;;;;;;11.10;68.26;100269.67;105359;1257;73809;-70
2023/05/05 00:18:33;;;;;;;7.50;2.60;;;;;;;11.22;68.18;100261.18;105991;1254;72004;-69
2023/05/05 00:21:00;;;;;;;3.20;2.30;;;;;;;11.25;68.36;100263.02;105163;1259;77353;-69
2023/05/05 00:23:27;;;;;;;7.80;2.60;;;;;;;11.26;68.23;100259.77;105920;1254;62373;-70
2023/05/05 00:25:54;;;;;;;4.70;2.40;;;;;;;11.28;68.28;100260.08;105843;1254;60422;-69
2023/05/05 00:28:22;;;;;;;5.40;3.20;;;;;;;11.28;68.37;100263.94;105990;1254;74699;-70
2023/05/05 00:30:48;;;;;;;3.60;2.70;;;;;;;11.27;68.31;100261.89;105346;1258;72247;-70
2023/05/05 00:33:16;;;;;;;5.90;3.20;;;;;;;11.29;68.51;100265.48;105899;1257;75143;-69
2023/05/05 00:35:42;;;;;;;4.00;2.70;;;;;;;11.30;68.35;100269.23;105560;1259;61247;-68
2023/05/05 00:38:09;;;;;;;5.40;2.70;;;;;;;11.32;68.70;100273.95;105891;1257;62559;-70
2023/05/05 00:40:37;;;;;;;4.80;2.80;;;;;;;11.32;68.77;100276.61;105888;1254;72996;-71
2023/05/05 00:43:04;;;;;;;6.20;3.10;;;;;;;11.30;68.91;100276.54;105607;1257;71464;-70
2023/05/05 00:45:31;;;;;;;5.10;2.50;;;;;;;11.30;68.95;100276.30;105864;1257;72774;-69
2023/05/05 00:47:58;;;;;;;3.60;2.20;;;;;;;11.40;69.05;100280.41;105714;1254;64260;-71
2023/05/05 00:50:30;;;;;;;4.80;2.70;;;;;;;11.51;69.01;100273.83;105536;1259;61196;-68
2023/05/05 00:53:00;;;;;;;7.00;2.90;;;;;;;11.53;69.16;100273.91;105413;1254;72630;-70
2023/05/05 00:55:28;;;;;;;3.50;2.60;;;;;;;11.55;69.47;100271.35;106051;1254;72712;-72
2023/05/05 00:57:59;;;;;;;4.10;2.70;;;;;;;11.58;69.73;100265.40;105835;1257;74532;-69
2023/05/05 01:00:26;;;;;;;6.30;3.10;;;;;;;11.62;69.73;100264.82;105625;1268;60768;-71
2023/05/05 01:02:54;;;;;;;6.50;3.10;;;;;;;11.65;69.75;100270.59;105866;1253;62416;-71
2023/05/05 01:05:21;;;;;;;3.40;2.70;;;;;;;11.62;70.01;100275.83;105512;1254;76126;-70
2023/05/05 01:07:54;;;;;;;9.00;3.00;;;;;;;11.57;70.52;100275.81;105430;1261;68726;-73
2023/05/05 01:10:28;;;;;;;3.10;2.70;;;;;;;11.53;70.65;100278.59;105813;1259;74885;-73
2023/05/05 01:13:33;;;;;;;3.20;2.30;;;;;;;11.58;70.89;100273.78;105728;1257;64722;-71
2023/05/05 01:16:05;;;;;;;3.80;2.90;;;;;;;11.62;71.07;100270.87;105879;1254;62008;-71
2023/05/05 01:18:45;;;;;;;4.20;2.50;;;;;;;11.59;71.27;100264.08;105805;1253;74877;-73
2023/05/05 01:21:13;;;;;;;3.30;2.60;;;;;;;11.56;71.59;100264.20;105835;1254;71308;-71
2023/05/05 01:24:01;;;;;;;5.80;2.70;;;;;;;11.49;71.66;100266.38;106096;1258;73607;-69
2023/05/05 01:26:46;;;;;;;7.30;2.80;;;;;;;11.41;72.11;100269.11;105161;1257;62561;-69
2023/05/05 01:29:34;;;;;;;5.70;2.90;;;;;;;11.34;72.39;100270.04;105885;1258;60084;-68
2023/05/05 01:32:09;;;;;;;3.10;2.20;;;;;;;11.29;72.89;100266.73;105904;1257;73694;-69
2023/05/05 01:34:41;;;;;;;6.00;3.00;;;;;;;11.35;73.02;100270.32;105799;1253;71999;-70
2023/05/05 01:37:28;;;;;;;6.50;2.90;;;;;;;11.40;72.97;100270.70;105926;1254;73629;-71
2023/05/05 01:39:58;;;;;;;4.80;2.60;;;;;;;11.39;73.01;100275.01;105876;1254;63831;-70
2023/05/05 01:42:25;;;;;;;4.60;2.80;;;;;;;11.36;73.46;100270.52;105997;1254;62186;-71
2023/05/05 01:44:52;;;;;;;6.20;3.00;;;;;;;11.32;73.52;100275.71;105288;1259;76013;-70
2023/05/05 01:47:20;;;;;;;4.90;3.20;;;;;;;11.27;73.81;100276.66;105354;1254;71936;-69
2023/05/05 01:49:47;;;;;;;3.30;2.30;;;;;;;11.24;74.29;100278.61;105357;1261;73784;-68
2023/05/05 01:52:16;;;;;;;6.30;2.60;;;;;;;11.29;73.82;100280.39;106152;1257;62960;-69
2023/05/05 01:54:43;;;;;;;4.10;2.90;;;;;;;11.33;73.73;100282.91;105844;1253;60827;-73
2023/05/05 01:57:10;;;;;;;5.20;2.80;;;;;;;11.29;73.83;100285.68;105498;1254;76107;-72
2023/05/05 01:59:38;;;;;;;4.80;2.80;;;;;;;11.19;73.91;100282.38;105982;1254;70973;-70
2023/05/05 02:02:08;;;;;;;3.90;2.90;;;;;;;11.14;73.86;100289.16;105514;1256;72967;-71
2023/05/05 02:04:36;;;;;;;3.30;2.80;;;;;;;11.09;73.91;100285.98;106521;1251;60504;-69
2023/05/05 02:07:03;;;;;;;3.90;2.90;;;;;;;11.08;74.03;100283.08;106771;1257;60844;-70
2023/05/05 02:09:30;;;;;;;5.60;2.50;;;;;;;11.05;73.83;100286.19;106680;1257;74706;-69
2023/05/05 02:11:57;;;;;;;4.40;2.40;;;;;;;11.11;74.01;100283.50;106089;1259;68594;-70
2023/05/05 02:14:25;;;;;;;3.70;2.90;;;;;;;11.14;73.95;100280.98;105976;1254;74740;-72
2023/05/05 02:16:52;;;;;;;3.20;2.70;;;;;;;11.11;74.05;100281.54;106050;1254;60611;-73
2023/05/05 02:19:20;;;;;;;3.40;2.90;;;;;;;11.03;74.15;100269.70;106032;1254;60360;-67
2023/05/05 02:21:47;;;;;;;5.20;3.00;;;;;;;10.93;74.39;100275.89;105457;1255;75683;-71
2023/05/05 02:24:14;;;;;;;3.20;2.60;;;;;;;10.85;74.52;100274.41;105975;1260;71180;-69
2023/05/05 02:26:42;;;;;;;3.70;2.90;;;;;;;10.77;74.67;100272.08;106234;1254;72819;-71
2023/05/05 02:29:15;;;;;;;4.40;2.90;;;;;;;10.80;74.71;100270.66;105205;1254;61853;-69
2023/05/05 02:31:52;;;;;;;4.40;2.60;;;;;;;10.84;74.91;100265.11;105413;1258;61865;-69
2023/05/05 02:34:25;;;;;;;3.00;2.60;;;;;;;10.81;75.05;100266.31;105589;1251;73726;-70
2023/05/05 02:36:56;;;;;;;4.10;3.10;;;;;;;10.78;75.28;100266.80;106158;1254;71082;-71
2023/05/05 02:39:28;;;;;;;4.70;2.90;;;;;;;10.72;75.59;100260.50;106022;1257;75168;-69
2023/05/05 02:41:55;;;;;;;3.70;2.80;;;;;;;10.65;75.79;100261.23;105869;1254;62375;-68
2023/05/05 02:44:24;;;;;;;2.90;2.40;;;;;;;10.62;75.99;100264.14;105490;1258;62101;-67
2023/05/05 02:46:52;;;;;;;7.40;3.10;;;;;;;10.71;75.92;100266.59;105516;1251;73968;-68
2023/05/05 02:49:20;;;;;;;3.70;3.20;;;;;;;10.77;75.99;100268.82;106398;1254;71734;-69
2023/05/05 02:51:47;;;;;;;5.90;2.80;;;;;;;10.74;76.25;100270.52;105876;1258;75092;-69
2023/05/05 02:54:19;;;;;;;6.20;2.70;;;;;;;10.69;76.37;100272.63;105345;1251;60478;-70
2023/05/05 02:56:47;;;;;;;3.60;3.20;;;;;;;10.66;76.54;100272.75;105505;1259;62564;-71
2023/05/05 02:59:20;;;;;;;3.80;2.60;;;;;;;10.65;76.54;100273.65;105862;1254;76385;-69
2023/05/05 03:01:58;;;;;;;3.50;2.60;;;;;;;10.70;76.26;100279.86;105576;1254;72118;-69
2023/05/05 03:05:01;;;;;;;3.50;2.70;;;;;;;10.73;76.21;100283.10;105888;1257;72838;-70
2023/05/05 03:07:50;;;;;;;4.00;2.50;;;;;;;10.66;75.98;100283.92;105691;1254;62464;-70
2023/05/05 03:10:20;;;;;;;4.50;3.20;;;;;;;10.55;75.34;100281.49;105589;1254;61517;-71
2023/05/05 03:12:54;;;;;;;6.70;2.90;;;;;;;10.47;75.27;100281.29;105850;1258;76104;-70
2023/05/05 03:15:36;;;;;;;4.20;2.60;;;;;;;10.41;75.04;100286.61;105646;1259;72159;-71
2023/05/05 03:18:03;;;;;;;4.20;2.60;;;;;;;10.39;74.99;100287.67;105978;1257;73122;-72
2023/05/05 03:20:30;;;;;;;2.60;2.20;;;;;;;10.48;74.71;100294.78;105788;1257;64286;-69
2023/05/05 03:23:01;;;;;;;3.30;2.20;;;;;;;10.54;74.80;100295.80;105891;1259;60847;-69
2023/05/05 03:25:41;;;;;;;3.40;2.80;;;;;;;10.52;74.51;100291.95;105448;1259;73959;-70
2023/05/05 03:28:09;;;;;;;3.60;2.60;;;;;;;10.48;74.72;100285.08;106178;1257;70966;-72
2023/05/05 03:30:36;;;;;;;4.40;2.50;;;;;;;10.48;74.57;100284.15;106014;1253;74509;-72
2023/05/05 03:33:03;;;;;;;6.00;2.80;;;;;;;10.49;74.36;100280.38;105840;1260;61519;-71
2023/05/05 03:35:30;;;;;;;3.70;2.00;;;;;;;10.49;74.68;100279.06;105924;1251;62333;-72
2023/05/05 03:37:58;;;;;;;3.50;2.00;;;;;;;10.58;74.31;100284.02;105366;1251;75635;-69
2023/05/05 03:40:25;;;;;;;2.90;2.30;;;;;;;10.60;73.91;100271.95;105517;1257;72528;-70
2023/05/05 03:43:06;;;;;;;3.80;2.80;;;;;;;10.50;74.02;100275.10;105609;1254;73171;-70
2023/05/05 03:45:33;;;;;;;2.70;2.30;;;;;;;10.41;74.73;100275.61;105741;1251;62504;-72
2023/05/05 03:48:01;;;;;;;5.60;2.70;;;;;;;10.33;75.51;100271.66;105970;1254;62333;-69
2023/05/05 03:50:28;;;;;;;2.50;2.30;;;;;;;10.26;76.01;100275.37;105377;1254;74450;-69
2023/05/05 03:52:55;;;;;;;5.30;2.60;;;;;;;10.25;77.08;100271.19;105354;1260;72063;-71
2023/05/05 03:55:22;;;;;;;4.40;2.70;;;;;;;10.24;77.49;100271.98;105794;1258;71383;-70
2023/05/05 03:57:49;;;;;;;6.20;2.70;;;;;;;10.10;79.03;100277.13;105974;1253;61084;-73
2023/05/05 04:00:17;;;;;;;5.10;3.40;;;;;;;9.92;79.95;100284.35;105774;1253;62421;-74
2023/05/05 04:02:43;;;;;;;4.70;2.50;;;;;;;9.74;81.00;100286.59;105857;1258;73843;-75
2023/05/05 04:05:11;;;;;;;6.60;2.90;;;;;;;9.68;81.76;100290.40;105941;1253;70575;-71
2023/05/05 04:07:38;;;;;;;5.00;2.80;;;;;;;9.66;82.37;100291.54;105859;1254;74981;-72
2023/05/05 04:10:06;;;;;;;4.50;3.10;;;;;;;9.56;83.22;100292.83;105865;1259;61128;-74
2023/05/05 04:12:33;;;;;;;5.40;3.20;;;;;;;9.47;84.09;100297.39;105944;1259;61015;-72
2023/05/05 04:15:00;;;;;;;4.70;3.40;;;;;;;9.40;84.30;100302.30;106019;1257;74385;-74
2023/05/05 04:17:27;;;;;;;4.50;3.30;;;;;;;9.45;84.78;100300.23;105984;1258;69342;-72
2023/05/05 04:19:55;;;;;;;5.40;3.00;;;;;;;9.51;84.96;100303.56;105977;1253;74998;-73
2023/05/05 04:22:21;;;;;;;5.20;3.30;;;;;;;9.51;84.95;100303.94;106035;1255;60422;-75
2023/05/05 04:24:49;;;;;;;4.70;3.00;;;;;;;9.50;85.01;100306.50;106080;1253;61102;-74
2023/05/05 04:27:16;;;;;;;3.40;2.60;;;;;;;9.50;85.00;100302.20;105791;1253;74618;-76
2023/05/05 04:29:43;;;;;;;4.80;3.30;;;;;;;9.60;84.82;100301.98;105747;1253;72198;-76
2023/05/05 04:32:10;;;;;;;4.20;2.80;;;;;;;9.68;84.27;100306.15;105783;1259;74837;-75
2023/05/05 04:34:37;;;;;;;6.00;3.40;;;;;;;9.68;84.25;100303.50;105774;1260;61714;-75
2023/05/05 04:37:05;;;;;;;4.30;2.60;;;;;;;9.66;84.16;100304.71;105863;1257;60960;-71
2023/05/05 04:39:32;;;;;;;4.00;2.80;;;;;;;9.66;83.96;100307.42;105913;1253;76154;-75
2023/05/05 04:42:01;;;;;;;4.70;2.90;;;;;;;9.75;83.71;100311.90;105810;1253;69968;-74
2023/05/05 04:44:28;;;;;;;4.40;3.10;;;;;;;9.81;83.37;100307.49;105917;1254;74918;-75
2023/05/05 04:46:56;;;;;;;4.20;2.90;;;;;;;9.82;83.12;100303.59;105865;1259;62920;-74
2023/05/05 04:49:23;;;;;;;3.50;2.70;;;;;;;9.81;82.62;100303.64;105999;1253;60587;-77
2023/05/05 04:51:50;;;;;;;3.90;2.80;;;;;;;9.80;82.48;100300.92;105903;1253;74889;-75
2023/05/05 04:54:17;;;;;;;3.80;2.20;;;;;;;9.82;81.97;100302.46;105884;1254;72540;-77
2023/05/05 04:56:44;;;;;;;3.50;2.60;;;;;;;9.93;82.22;100311.34;105766;1253;73746;-76
2023/05/05 04:59:11;;;;;;;3.60;2.40;;;;;;;9.97;82.03;100316.76;105844;1258;60409;-76
2023/05/05 05:01:37;;;;;;;3.50;2.80;;;;;;;9.96;81.81;100319.16;105945;1253;60378;-76
2023/05/05 05:04:05;;;;;;;2.60;2.40;;;;;;;9.97;81.84;100323.48;105994;1253;74720;-77
2023/05/05 05:06:33;;;;;;;4.40;2.20;;;;;;;10.02;81.77;100324.73;105729;1254;72290;-74
2023/05/05 05:08:59;;;;;;;3.90;2.50;;;;;;;10.19;80.98;100328.82;105788;1254;74683;-73
2023/05/05 05:11:27;;;;;;;8.00;2.80;;;;;;;10.34;80.83;100331.98;105972;1258;61391;-75
2023/05/05 05:13:54;;;;;;;3.30;2.10;;;;;;;10.37;80.19;100336.80;105854;1259;60946;-77
2023/05/05 05:16:21;;;;;;;4.10;2.00;;;;;;;10.35;79.54;100340.02;106003;1254;73440;-77
2023/05/05 05:18:48;;;;;;;4.60;2.60;;;;;;;10.32;79.44;100337.24;105940;1253;72171;-74
2023/05/05 05:21:15;;;;;;;7.00;2.10;;;;;;;10.33;79.28;100336.48;105896;1253;73291;-76
2023/05/05 05:23:43;;;;;;;2.50;1.80;;;;;;;10.42;78.76;100334.31;106298;1257;62731;-74
2023/05/05 05:26:10;;;;;;;5.30;2.60;;;;;;;10.52;78.17;100335.49;106070;1253;60394;-73
2023/05/05 05:28:37;;;;;;;4.30;2.50;;;;;;;10.59;78.57;100342.95;105911;1253;74221;-74
2023/05/05 05:31:04;;;;;;;3.40;2.20;;;;;;;10.65;78.57;100347.09;106026;1254;70316;-74
2023/05/05 05:33:31;;;;;;;4.30;2.40;;;;;;;10.70;78.23;100351.05;105988;1254;71644;-74
2023/05/05 05:35:58;;;;;;;3.50;2.50;;;;;;;10.75;78.05;100347.86;105774;1255;62142;-74
2023/05/05 05:38:25;;;;;;;3.60;2.50;;;;;;;10.85;78.29;100340.53;106030;1253;60485;-72
2023/05/05 05:40:53;;;;;;;2.70;2.40;;;;;;;11.08;78.85;100337.23;106000;1253;73158;-75
2023/05/05 05:43:20;;;;;;;2.60;2.30;;;;;;;11.29;78.01;100334.09;105881;1257;72998;-75
2023/05/05 05:45:47;;;;;;;4.90;2.40;;;;;;;11.39;77.49;100339.23;105866;1253;74755;-75
2023/05/05 05:48:14;;;;;;;3.90;2.80;;;;;;;11.46;77.53;100340.63;105867;1257;61205;-72
2023/05/05 05:50:41;;;;;;;3.90;3.20;;;;;;;11.54;76.90;100341.09;105892;1253;62410;-73
2023/05/05 05:53:08;;;;;;;2.30;1.90;;;;;;;11.62;76.76;100334.05;105891;1253;73836;-72
2023/05/05 05:55:35;;;;;;;3.20;1.90;;;;;;;11.70;76.17;100333.52;105880;1253;72462;-72
2023/05/05 05:58:03;;;;;;;3.40;2.00;;;;;;;11.90;75.70;100337.52;105802;1258;71508;-73
2023/05/05 06:00:30;;;;;;;3.00;2.40;;;;;;;12.06;74.11;100337.27;105805;1256;62327;-73
2023/05/05 06:02:59;;;;;;;5.20;2.40;;;;;;;12.11;73.63;100334.27;105898;1253;61494;-72
2023/05/05 06:05:29;;;;;;;2.80;1.80;;;;;;;12.15;72.75;100334.52;105983;1253;76051;-73
2023/05/05 06:07:56;;;;;;;4.70;1.90;;;;;;;12.16;71.60;100338.85;105810;1253;72311;-71
2023/05/05 06:10:24;;;;;;;3.60;2.70;;;;;;;12.17;71.72;100336.95;105797;1254;72821;-72
2023/05/05 06:12:59;;;;;;;3.40;2.30;;;;;;;12.26;71.81;100337.20;105868;1259;60502;-72
2023/05/05 06:15:26;;;;;;;4.10;1.60;;;;;;;12.38;71.45;100335.98;105823;1258;62161;-71
2023/05/05 06:17:53;;;;;;;2.90;1.70;;;;;;;12.47;71.14;100340.15;105729;1253;74272;-73
2023/05/05 06:20:20;;;;;;;3.80;1.90;;;;;;;12.53;70.54;100342.16;105924;1253;71178;-72
2023/05/05 06:22:47;;;;;;;3.60;2.00;;;;;;;12.56;69.56;100342.31;105901;1257;70973;-71
2023/05/05 06:25:15;;;;;;;3.00;2.20;;;;;;;12.59;69.78;100344.16;105787;1256;61981;-73
2023/05/05 06:27:42;;;;;;;3.70;2.10;;;;;;;12.62;69.91;100340.26;106005;1254;61887;-71
2023/05/05 06:30:10;;;;;;;3.80;1.90;;;;;;;12.64;69.42;100337.03;105921;1257;75116;-72
2023/05/05 06:32:37;;;;;;;3.70;2.00;;;;;;;12.62;68.22;100337.79;105748;1253;72264;-71
2023/05/05 06:35:05;;;;;;;3.00;1.90;;;;;;;12.54;67.84;100332.92;105946;1253;74766;-72
2023/05/05 06:37:31;;;;;;;3.10;2.20;;;;;;;12.50;68.06;100339.11;106520;1253;61201;-77
2023/05/05 06:39:58;;;;;;;2.70;1.90;;;;;;;12.51;68.74;100339.06;107330;1253;60399;-75
2023/05/05 06:42:25;;;;;;;2.30;1.60;;;;;;;12.66;68.61;100342.75;107286;1254;72153;-77
2023/05/05 06:44:52;;;;;;;3.40;2.30;;;;;;;12.81;68.68;100345.48;107522;1255;71100;-80
2023/05/05 06:47:19;;;;;;;4.00;2.00;;;;;;;12.91;68.20;100341.91;106680;1253;71197;-80
2023/05/05 06:49:46;;;;;;;2.60;2.40;;;;;;;12.99;67.36;100340.54;106111;1253;60950;-81
2023/05/05 06:52:13;;;;;;;2.40;1.80;;;;;;;13.04;65.94;100336.65;106313;1253;61285;-79
2023/05/05 06:54:40;;;;;;;2.80;1.80;;;;;;;13.03;65.27;100336.68;106167;1255;73794;-77
2023/05/05 06:57:06;;;;;;;3.00;1.90;;;;;;;13.03;65.79;100334.79;105941;1258;71609;-77
2023/05/05 06:59:33;;;;;;;2.90;2.10;;;;;;;13.06;65.28;100333.92;105765;1253;73354;-76
2023/05/05 07:02:00;;;;;;;1.90;1.70;;;;;;;13.06;64.80;100332.41;105775;1253;60588;-76
2023/05/05 07:04:27;;;;;;;2.20;1.40;;;;;;;13.09;64.63;100333.67;106215;1254;60597;-77
2023/05/05 07:06:54;;;;;;;3.70;1.90;;;;;;;13.13;64.26;100332.21;105949;1253;76065;-78
2023/05/05 07:09:22;;;;;;;3.30;1.80;;;;;;;13.14;63.24;100331.33;105963;1253;71002;-74
2023/05/05 07:11:49;;;;;;;1.70;1.60;;;;;;;13.14;63.79;100333.14;106106;1257;72601;-78
2023/05/05 07:14:16;;;;;;;3.00;2.10;;;;;;;13.17;63.82;100336.42;105669;1256;228052;-77
2023/05/05 07:18:46;;;;;;;2.30;1.80;;;;;;;13.19;62.63;100335.33;102950;1292;601029;-70
2023/05/05 07:21:13;;;;;;;2.50;2.10;;;;;;;13.16;63.31;100337.25;105033;1267;59263;-71
2023/05/05 07:23:42;;;;;;;3.80;2.50;;;;;;;13.19;63.49;100337.42;105123;1267;62718;-73
2023/05/05 07:26:09;;;;;;;2.30;2.10;;;;;;;13.25;63.88;100339.88;105156;1270;74753;-75
2023/05/05 07:28:36;;;;;;;3.50;2.10;;;;;;;13.30;63.75;100338.75;105167;1267;72049;-70
2023/05/05 07:31:03;;;;;;;2.20;1.70;;;;;;;13.35;63.21;100344.21;105275;1266;73301;-79
2023/05/05 07:33:30;;;;;;;4.50;2.80;;;;;;;13.40;63.09;100346.83;105129;1269;169886;-73
2023/05/05 07:35:57;;;;;;;3.00;2.40;;;;;;;13.47;62.64;100346.48;105283;1267;61178;-75
2023/05/05 07:38:24;;;;;;;2.70;2.10;;;;;;;13.50;62.73;100348.53;105895;1255;74221;-73
2023/05/05 07:40:51;;;;;;;3.70;2.10;;;;;;;13.51;62.78;100353.30;106028;1259;72587;-73
2023/05/05 07:43:18;;;;;;;4.60;2.30;;;;;;;13.53;62.82;100350.52;105872;1260;73429;-73
2023/05/05 07:45:45;;;;;;;4.50;2.10;;;;;;;13.58;63.00;100347.54;105880;1254;62926;-71
2023/05/05 07:48:12;;;;;;;4.90;2.10;;;;;;;13.64;62.42;100340.10;105685;1259;60026;-71
2023/05/05 07:50:38;;;;;;;3.30;2.40;;;;;;;13.71;62.14;100336.80;105829;1259;75265;-71
2023/05/05 07:53:06;;;;;;;2.50;1.70;;;;;;;13.81;61.36;100339.10;105645;1257;71294;-73
2023/05/05 07:55:40;;;;;;;2.40;1.70;;;;;;;13.88;60.84;100338.82;105726;1259;74049;-72
2023/05/05 07:58:09;;;;;;;2.30;1.80;;;;;;;13.96;60.68;100342.67;105834;1255;61486;-73
2023/05/05 08:00:37;;;;;;;3.30;2.50;;;;;;;14.07;59.32;100339.27;105822;1261;59562;-79
2023/05/05 08:03:04;;;;;;;2.50;1.80;;;;;;;14.14;59.27;100331.52;105881;1258;72885;-71
2023/05/05 08:05:32;;;;;;;2.30;1.70;;;;;;;14.27;59.19;100331.30;105837;1254;71494;-72
2023/05/05 08:07:59;;;;;;;2.50;1.80;;;;;;;14.38;57.29;100330.23;105692;1257;72897;-75
2023/05/05 08:10:26;;;;;;;2.20;1.90;;;;;;;14.38;56.85;100335.77;105824;1259;59624;-72
2023/05/05 08:12:53;;;;;;;3.50;1.90;;;;;;;14.39;57.50;100335.65;105828;1254;61208;-71
2023/05/05 08:15:20;;;;;;;2.70;1.60;;;;;;;14.51;57.47;100332.47;105813;1257;72941;-72
2023/05/05 08:17:49;;;;;;;3.60;2.00;;;;;;;14.60;57.01;100327.30;105904;1257;72504;-74
2023/05/05 08:20:17;;;;;;;3.30;1.80;;;;;;;14.72;56.49;100330.95;105823;1257;73804;-73
2023/05/05 08:22:44;;;;;;;3.30;2.10;;;;;;;14.80;55.76;100327.55;105898;1256;61262;-75
2023/05/05 08:25:11;;;;;;;3.40;2.20;;;;;;;14.87;55.55;100326.64;105853;1257;61240;-73
2023/05/05 08:27:39;;;;;;;3.30;2.00;;;;;;;15.00;55.43;100327.08;105977;1259;76134;-73
2023/05/05 08:30:07;;;;;;;3.10;2.10;;;;;;;15.15;54.60;100329.52;106146;1254;72130;-74
2023/05/05 08:32:34;;;;;;;3.00;2.00;;;;;;;15.27;54.86;100328.50;105951;1254;72435;-74
2023/05/05 08:35:02;;;;;;;3.90;1.80;;;;;;;15.40;54.40;100326.17;105998;1255;61282;-72
2023/05/05 08:37:29;;;;;;;2.40;1.90;;;;;;;15.54;53.92;100329.40;105942;1254;61336;-72
2023/05/05 08:40:23;;;;;;;2.20;1.80;;;;;;;15.68;53.66;100328.52;106000;1254;73982;-73
2023/05/05 08:42:50;;;;;;;4.20;2.00;;;;;;;15.76;53.03;100328.15;105823;1254;72181;-73
2023/05/05 08:45:17;;;;;;;3.20;2.00;;;;;;;15.83;52.80;100325.38;105855;1259;73783;-73
2023/05/05 08:47:44;;;;;;;2.90;2.00;;;;;;;15.91;52.16;100325.39;105946;1256;61321;-73
2023/05/05 08:50:11;;;;;;;4.10;1.70;;;;;;;16.01;51.56;100326.16;105799;1258;61156;-73
2023/05/05 08:52:40;;;;;;;2.30;1.70;;;;;;;16.12;50.94;100324.71;105917;1254;74136;-73
2023/05/05 08:55:17;;;;;;;3.30;1.70;;;;;;;16.29;50.65;100324.17;105939;1253;72212;-72
2023/05/05 08:57:50;;;;;;;3.40;1.70;;;;;;;16.50;51.23;100322.60;105891;1254;73946;-74
2023/05/05 09:00:18;;;;;;;;;;;;;;;16.74;51.01;100324.20;105905;1254;62201;-72
2023/05/05 09:02:45;;;;;;;2.70;1.60;;;;;;;16.99;50.59;100321.91;106126;1254;61238;-71
2023/05/05 09:05:11;;;;;;;5.10;2.00;;;;;;;17.25;49.91;100321.09;106048;1252;74120;-71
2023/05/05 09:07:42;;;;;;;6.00;1.80;;;;;;;17.52;49.40;100326.63;105961;1254;71945;-71
2023/05/05 09:10:10;;;;;;;2.60;1.80;;;;;;;17.85;48.10;100322.90;106026;1254;73661;-71
2023/05/05 09:12:39;;;;;;;2.20;1.70;;;;;;;18.08;46.61;100327.37;105881;1254;60609;-70
2023/05/05 09:15:10;;;;;;;2.70;1.60;;;;;;;18.26;46.86;100326.84;105846;1256;60231;-71
2023/05/05 09:17:38;;;;;;;2.00;1.70;;;;;;;18.42;46.02;100319.83;105846;1254;73953;-71
2023/05/05 09:20:06;;;;;;;2.30;1.70;;;;;;;18.55;45.20;100314.33;105940;1254;71072;-73
2023/05/05 09:22:38;;;;;;;1.60;1.50;;;;;;;18.72;44.86;100319.63;106056;1254;74646;-71
2023/05/05 09:25:06;;;;;;;3.50;1.80;;;;;;;19.00;44.74;100323.86;105984;1254;61022;-73
2023/05/05 09:27:39;;;;;;;2.40;2.20;;;;;;;19.38;44.33;100321.54;106145;1254;61146;-72
2023/05/05 09:30:08;;;;;;;2.70;1.80;;;;;;;19.82;43.07;100319.55;105863;1257;75120;-71
2023/05/05 09:32:53;;;;;;;5.30;3.00;;;;;;;20.19;42.30;100314.89;106047;1253;72123;-72
2023/05/05 09:35:21;;;;;;;4.20;2.00;;;;;;;20.51;42.25;100310.85;105948;1253;75123;-72
2023/05/05 09:37:48;;;;;;;3.80;1.70;;;;;;;20.76;41.71;100310.50;105991;1254;62818;-71
2023/05/05 09:40:16;;;;;;;3.30;1.80;;;;;;;20.93;41.27;100306.11;105767;1259;62539;-72
2023/05/05 09:42:43;;;;;;;4.40;1.80;;;;;;;21.13;41.65;100305.04;106028;1254;75250;-71
2023/05/05 09:45:17;;;;;;;3.20;2.60;;;;;;;21.43;41.45;100307.17;105878;1254;71427;-68
2023/05/05 09:47:44;;;;;;;2.80;1.70;;;;;;;21.84;40.26;100306.05;105831;1254;76596;-71
2023/05/05 09:50:17;;;;;;;3.70;2.00;;;;;;;22.24;39.40;100305.87;105746;1255;61778;-74
2023/05/05 09:53:00;;;;;;;;;;;;;;;22.68;39.09;100302.69;105798;1259;60520;-71
2023/05/05 09:55:27;;;;;;;2.80;1.90;;;;;;;23.08;38.00;100304.94;105859;1254;74097;-73
2023/05/05 09:57:54;;;;;;;2.10;1.90;;;;;;;23.39;37.74;100299.80;105872;1254;72724;-73
2023/05/05 10:00:22;;;;;;;2.40;1.90;;;;;;;23.76;37.23;100298.32;105824;1254;73543;-73
2023/05/05 10:02:49;;;;;;;3.00;2.10;;;;;;;24.08;36.22;100293.09;105720;1261;62560;-74
2023/05/05 10:05:17;;;;;;;3.20;1.80;;;;;;;24.26;35.37;100294.37;106037;1256;62963;-72
2023/05/05 10:07:45;;;;;;;3.20;2.00;;;;;;;24.36;35.90;100293.05;106117;1256;73896;-72
2023/05/05 10:10:14;;;;;;;3.10;2.30;;;;;;;24.64;35.84;100289.38;106116;1254;72359;-74
2023/05/05 10:12:42;;;;;;;2.90;2.30;;;;;;;25.06;35.58;100286.61;105810;1257;72510;-72
2023/05/05 10:15:09;;;;;;;3.00;2.20;;;;;;;25.50;34.24;100292.70;105836;1254;61037;-72
2023/05/05 10:17:44;;;;;;;2.40;1.90;;;;;;;25.91;33.58;100293.34;105904;1256;59759;-73
2023/05/05 10:20:32;;;;;;;3.60;1.90;;;;;;;26.32;32.95;100285.13;105992;1257;73231;-71
2023/05/05 10:22:59;;;;;;;4.80;2.10;;;;;;;26.66;32.42;100282.91;106064;1256;72738;-71
2023/05/05 10:25:32;;;;;;;2.60;1.90;;;;;;;27.01;32.41;100274.84;106013;1254;73350;-72
2023/05/05 10:28:00;;;;;;;4.00;2.10;;;;;;;27.39;31.50;100267.52;105921;1254;62421;-73
2023/05/05 10:30:30;;;;;;;3.20;2.20;;;;;;;27.71;31.02;100267.73;105989;1257;60919;-74
2023/05/05 10:33:20;;;;;;;3.80;2.10;;;;;;;27.92;30.41;100266.64;105990;1254;74357;-74
2023/05/05 10:35:52;;;;;;;3.40;1.70;;;;;;;28.15;29.89;100269.73;105648;1257;71277;-69
2023/05/05 10:38:19;;;;;;;3.50;1.90;;;;;;;28.35;29.77;100270.02;105589;1259;74778;-72
2023/05/05 10:40:47;;;;;;;4.40;2.20;;;;;;;28.62;29.32;100267.89;106121;1254;62647;-70
2023/05/05 10:43:14;;;;;;;2.70;2.00;;;;;;;28.92;28.86;100256.67;106436;1259;62138;-73
2023/05/05 10:45:41;;;;;;;3.70;2.30;;;;;;;28.99;28.65;100257.80;105783;1254;75635;-71
2023/05/05 10:48:11;;;;;;;2.40;2.20;;;;;;;29.06;28.35;100261.17;105809;1255;69872;-70
2023/05/05 10:50:43;;;;;;;3.20;2.00;;;;;;;29.08;28.14;100263.52;105655;1255;72651;-73
2023/05/05 10:53:23;;;;;;;3.10;2.80;;;;;;;29.10;28.62;100255.04;105847;1259;60980;-72
2023/05/05 10:56:05;;;;;;;2.10;1.90;;;;;;;29.28;28.37;100253.78;105831;1254;60130;-71
2023/05/05 10:58:33;;;;;;;3.00;2.20;;;;;;;29.40;27.58;100251.48;105427;1254;74566;-69
2023/05/05 11:01:13;;;;;;;2.60;2.40;;;;;;;29.26;28.05;100250.55;105844;1254;72479;-71
2023/05/05 11:03:40;;;;;;;2.80;2.20;;;;;;;29.48;27.97;100250.89;105426;1256;73656;-70
2023/05/05 11:06:07;;;;;;;2.40;2.20;;;;;;;29.89;27.68;100250.61;105848;1254;62453;-71
2023/05/05 11:08:35;;;;;;;2.60;2.00;;;;;;;30.28;27.22;100251.92;106014;1254;61440;-72
2023/05/05 11:11:02;;;;;;;2.90;2.50;;;;;;;30.62;26.88;100253.26;106139;1257;75299;-70
2023/05/05 11:13:30;;;;;;;2.10;1.90;;;;;;;30.97;26.49;100243.36;106058;1254;70154;-70
2023/05/05 11:15:57;;;;;;;2.50;2.10;;;;;;;31.31;26.39;100240.75;105934;1257;74450;-72
2023/05/05 11:18:37;;;;;;;3.20;2.10;;;;;;;31.70;26.03;100234.27;105853;1256;61848;-70
2023/05/05 11:21:14;;;;;;;2.00;1.90;;;;;;;32.13;25.52;100236.25;105956;1256;59601;-70
2023/05/05 11:23:42;;;;;;;1.70;1.60;;;;;;;32.27;25.54;100231.33;105864;1254;75104;-71
2023/05/05 11:26:11;;;;;;;2.10;1.90;;;;;;;32.35;25.10;100233.03;105834;1254;71342;-71
2023/05/05 11:28:55;;;;;;;3.10;2.10;;;;;;;32.36;25.29;100236.47;105568;1256;71385;-72
2023/05/05 11:31:22;;;;;;;2.30;2.10;;;;;;;32.49;25.11;100227.48;105890;1256;62351;-71